createdAt,value
2018-08-30T06:31:15.942Z,20.9
2018-08-30T06:31:26.043Z,21
2018-08-30T06:32:16.420Z,21.2
2018-08-30T06:33:06.715Z,21.5
2018-08-30T06:33:56.790Z,21.9
2018-08-30T06:34:47.016Z,21.9
2018-08-30T06:35:36.635Z,21.9
2018-08-30T06:36:26.799Z,21.9
2018-08-30T06:37:16.261Z,21.9
2018-08-30T06:38:06.563Z,22
2018-08-30T06:38:57.129Z,21.8
2018-08-30T06:39:46.969Z,21.7
2018-08-30T06:40:37.324Z,21.6
2018-08-30T06:41:27.540Z,21.9
2018-08-30T06:42:17.442Z,22.1
2018-08-30T06:43:07.509Z,21.9
2018-08-30T06:43:57.484Z,21.7
2018-08-30T06:44:47.336Z,21.9
2018-08-30T06:45:37.429Z,22.2
2018-08-30T06:46:27.486Z,22.4
2018-08-30T06:47:17.825Z,22.7
2018-08-30T06:48:07.878Z,22.7
2018-08-30T06:48:57.928Z,22.7
2018-08-30T06:49:48.072Z,22.8
2018-08-30T06:50:38.084Z,22.9
2018-08-30T06:51:28.161Z,23
2018-08-30T06:52:18.246Z,23
2018-08-30T06:53:08.263Z,23.2
2018-08-30T06:53:58.046Z,23.1
2018-08-30T06:54:48.106Z,23.1
2018-08-30T06:55:38.456Z,23.2
2018-08-30T06:56:29.043Z,22.8
2018-08-30T06:57:18.048Z,22.7
2018-08-30T06:58:08.668Z,22.8
2018-08-30T06:58:58.435Z,22.5
2018-08-30T06:59:48.798Z,22.4
2018-08-30T07:00:38.296Z,22.8
2018-08-30T07:01:28.960Z,22.9
2018-08-30T07:02:18.955Z,23.3
2018-08-30T07:03:08.482Z,23.6
2018-08-30T07:03:59.203Z,23.6
2018-08-30T07:04:48.680Z,23.8
2018-08-30T07:05:38.812Z,23.9
2018-08-30T07:06:29.301Z,24.1
2018-08-30T07:07:19.081Z,23.8
2018-08-30T07:08:09.560Z,23.7
2018-08-30T07:08:59.488Z,23.6
2018-08-30T07:09:48.970Z,23.5
2018-08-30T07:10:39.340Z,23.5
2018-08-30T07:11:29.672Z,23.4
2018-08-30T07:12:19.760Z,23.4
2018-08-30T07:13:09.522Z,23.4
2018-08-30T07:13:59.932Z,23.8
2018-08-30T07:14:49.764Z,23.9
2018-08-30T07:15:39.999Z,24.3
2018-08-30T07:16:29.795Z,24.3
2018-08-30T07:17:20.361Z,24.1
2018-08-30T07:18:09.652Z,24.3
2018-08-30T07:18:59.969Z,24.3
2018-08-30T07:19:50.032Z,24.3
2018-08-30T07:20:40.092Z,24.4
2018-08-30T07:21:30.482Z,24.4
2018-08-30T07:22:20.813Z,24.3
2018-08-30T07:23:10.609Z,24.3
2018-08-30T07:24:00.889Z,24.4
2018-08-30T07:24:50.428Z,24.4
2018-08-30T07:25:40.789Z,24.6
2018-08-30T07:26:30.550Z,25
2018-08-30T07:27:20.901Z,24.9
2018-08-30T07:28:11.001Z,24.4
2018-08-30T07:29:00.787Z,24.1
2018-08-30T07:29:50.873Z,23.9
2018-08-30T07:30:41.156Z,24.1
2018-08-30T07:31:31.231Z,24.5
2018-08-30T07:32:20.287Z,24.8
2018-08-30T07:33:11.074Z,24.6
2018-08-30T07:34:01.081Z,24.5
2018-08-30T07:34:52.100Z,24.8
2018-08-30T07:35:41.553Z,24.9
2018-08-30T07:36:31.350Z,25.1
2018-08-30T07:37:21.886Z,25.2
2018-08-30T07:38:11.756Z,25.3
2018-08-30T07:39:01.801Z,24.9
2018-08-30T07:39:51.876Z,25.1
2018-08-30T07:40:41.374Z,25.3
2018-08-30T07:41:32.001Z,25.3
2018-08-30T07:42:21.789Z,25.1
2018-08-30T07:43:11.836Z,24.7
2018-08-30T07:44:02.258Z,24.6
2018-08-30T07:44:52.257Z,24.9
2018-08-30T07:45:42.339Z,25.2
2018-08-30T07:46:32.110Z,25.3
2018-08-30T07:47:22.897Z,25.4
2018-08-30T07:48:12.511Z,25.3
2018-08-30T07:49:02.577Z,25.1
2018-08-30T07:49:52.649Z,25
2018-08-30T07:50:42.784Z,25.2
2018-08-30T07:51:32.783Z,25.6
2018-08-30T07:52:22.571Z,25.8
2018-08-30T07:53:12.920Z,25.9
2018-08-30T07:54:02.970Z,26.4
2018-08-30T07:54:53.017Z,26.9
2018-08-30T07:55:42.799Z,26.8
2018-08-30T07:56:33.158Z,26.6
2018-08-30T07:57:23.254Z,26.6
2018-08-30T07:58:13.027Z,26.7
2018-08-30T07:59:03.077Z,26.9
2018-08-30T07:59:53.836Z,27.1
2018-08-30T08:00:42.897Z,27.3
2018-08-30T08:01:33.546Z,27.1
2018-08-30T08:02:23.027Z,26.9
2018-08-30T08:03:13.632Z,27.1
2018-08-30T08:04:04.001Z,27
2018-08-30T08:04:53.792Z,26.1
2018-08-30T08:05:43.844Z,25.8
2018-08-30T08:06:33.672Z,25.6
2018-08-30T08:07:23.788Z,25.4
2018-08-30T08:08:13.789Z,25.6
2018-08-30T08:09:03.886Z,25.4
2018-08-30T08:09:54.199Z,25.8
2018-08-30T08:10:43.774Z,25.9
2018-08-30T08:11:33.835Z,26.2
2018-08-30T08:12:24.371Z,26.2
2018-08-30T08:13:14.460Z,26.2
2018-08-30T08:14:03.936Z,26.6
2018-08-30T08:14:54.311Z,26.4
2018-08-30T08:15:44.360Z,26.3
2018-08-30T08:16:34.703Z,26.1
2018-08-30T08:17:24.468Z,26.6
2018-08-30T08:18:14.541Z,26.6
2018-08-30T08:19:04.720Z,26.9
2018-08-30T08:19:54.923Z,27.3
2018-08-30T08:20:45.024Z,27.7
2018-08-30T08:21:35.088Z,27.9
2018-08-30T08:22:25.158Z,28
2018-08-30T08:23:15.212Z,27.3
2018-08-30T08:24:05.017Z,27
2018-08-30T08:24:55.811Z,26.9
2018-08-30T08:25:45.716Z,26.5
2018-08-30T08:26:35.195Z,26.6
2018-08-30T08:27:25.548Z,27.1
2018-08-30T08:28:15.610Z,27.7
2018-08-30T08:29:05.721Z,27.9
2018-08-30T08:29:55.797Z,27.8
2018-08-30T08:30:45.531Z,27.9
2018-08-30T08:31:35.627Z,28.1
2018-08-30T08:32:25.925Z,28.4
2018-08-30T08:33:15.998Z,28.3
2018-08-30T08:34:06.027Z,28
2018-08-30T08:34:56.376Z,27.1
2018-08-30T08:35:46.185Z,27.3
2018-08-30T08:36:36.524Z,28.1
2018-08-30T08:37:26.052Z,28.4
2018-08-30T08:38:16.097Z,28.7
2018-08-30T08:39:06.458Z,28.8
2018-08-30T08:39:56.502Z,29
2018-08-30T08:40:46.285Z,29.1
2018-08-30T08:41:36.674Z,29
2018-08-30T08:42:26.696Z,28.9
2018-08-30T08:43:16.765Z,28.9
2018-08-30T08:44:07.124Z,29.2
2018-08-30T08:44:56.606Z,29.3
2018-08-30T08:45:47.204Z,29.2
2018-08-30T08:46:37.326Z,29.5
2018-08-30T08:47:27.128Z,29.4
2018-08-30T08:48:16.873Z,29.6
2018-08-30T08:49:06.939Z,29.6
2018-08-30T08:49:57.289Z,29.9
2018-08-30T08:50:47.607Z,29.9
2018-08-30T08:51:37.172Z,29.6
2018-08-30T08:52:27.211Z,29.3
2018-08-30T08:53:17.555Z,29.3
2018-08-30T08:54:07.640Z,29.8
2018-08-30T08:54:57.666Z,29.9
2018-08-30T08:55:47.469Z,29.9
2018-08-30T08:56:37.559Z,29.8
2018-08-30T08:57:27.298Z,29.9
2018-08-30T08:58:17.948Z,30.1
2018-08-30T09:14:41.153Z,30.5
2018-08-30T09:15:30.378Z,30.7
2018-08-30T09:16:20.191Z,31.1
2018-08-30T09:17:10.501Z,31
2018-08-30T09:18:00.113Z,31.3
2018-08-30T09:18:50.078Z,31.6
2018-08-30T09:19:40.723Z,31.9
2018-08-30T09:20:30.215Z,31.9
2018-08-30T09:21:20.594Z,32.1
2018-08-30T09:22:10.623Z,32.1
2018-08-30T09:23:00.500Z,31.4
2018-08-30T09:23:51.082Z,31.2
2018-08-30T09:24:40.822Z,31.5
2018-08-30T09:25:31.197Z,31.3
2018-08-30T09:26:21.240Z,31.7
2018-08-30T09:27:11.831Z,31.8
2018-08-30T09:28:00.511Z,31.6
2018-08-30T09:28:51.408Z,31.7
2018-08-30T09:29:41.464Z,32.1
2018-08-30T09:30:31.669Z,32
2018-08-30T09:31:21.605Z,32.1
2018-08-30T09:32:11.685Z,32.1
2018-08-30T09:33:01.721Z,32.3
2018-08-30T09:33:51.554Z,31.9
2018-08-30T09:34:41.938Z,31
2018-08-30T09:35:31.661Z,30.7
2018-08-30T09:36:21.437Z,30.1
2018-08-30T09:37:12.302Z,29.9
2018-08-30T09:38:01.862Z,30.3
2018-08-30T09:38:51.922Z,29.9
2018-08-30T09:39:42.257Z,30.1
2018-08-30T09:40:32.592Z,30.4
2018-08-30T09:41:22.123Z,30.9
2018-08-30T09:42:12.509Z,31.4
2018-08-30T09:43:02.266Z,30.9
2018-08-30T09:43:53.353Z,31.1
2018-08-30T09:44:42.377Z,31.3
2018-08-30T09:45:32.435Z,31.4
2018-08-30T09:46:22.776Z,31.6
2018-08-30T09:47:12.286Z,31.5
2018-08-30T09:48:02.923Z,30.9
2018-08-30T09:48:52.431Z,29.2
2018-08-30T09:49:43.417Z,28.8
2018-08-30T09:50:32.839Z,29
2018-08-30T09:51:22.564Z,28.9
2018-08-30T09:52:13.199Z,29
2018-08-30T09:53:03.010Z,29.3
2018-08-30T09:53:52.798Z,30
2018-08-30T09:54:43.165Z,29.9
2018-08-30T09:55:33.340Z,29.8
2018-08-30T09:56:23.837Z,30.3
2018-08-30T09:57:14.303Z,30.7
2018-08-30T09:58:03.424Z,31.1
2018-08-30T09:58:53.748Z,30.8
2018-08-30T09:59:43.840Z,30.6
2018-08-30T10:00:33.906Z,29.9
2018-08-30T10:01:23.627Z,29.8
2018-08-30T10:02:14.026Z,29.9
2018-08-30T10:03:03.554Z,30.6
2018-08-30T10:03:55.041Z,30.6
2018-08-30T10:04:44.833Z,31.2
2018-08-30T10:05:33.787Z,31.6
2018-08-30T10:06:24.355Z,32
2018-08-30T10:07:14.132Z,32.2
2018-08-30T10:08:04.204Z,32.1
2018-08-30T10:08:53.490Z,32.3
2018-08-30T10:09:44.318Z,32.6
2018-08-30T10:10:34.677Z,32.9
2018-08-30T10:11:24.732Z,32.4
2018-08-30T10:12:14.517Z,31.8
2018-08-30T10:13:04.596Z,31.6
2018-08-30T10:13:54.931Z,31.9
2018-08-30T10:14:44.716Z,32.1
2018-08-30T10:15:34.894Z,31.5
2018-08-30T10:16:24.363Z,31
2018-08-30T10:17:15.249Z,30.7
2018-08-30T10:18:05.207Z,30.3
2018-08-30T10:18:55.319Z,30.1
2018-08-30T10:19:45.099Z,30.4
2018-08-30T10:20:35.449Z,31.1
2018-08-30T10:21:25.482Z,31.6
2018-08-30T10:22:15.611Z,31.1
2018-08-30T10:23:05.159Z,30.6
2018-08-30T10:23:55.177Z,29.9
2018-08-30T10:24:45.773Z,30.4
2018-08-30T10:25:35.986Z,31.4
2018-08-30T10:26:25.909Z,32
2018-08-30T10:27:15.963Z,32.1
2018-08-30T10:28:05.801Z,31.8
2018-08-30T10:28:55.543Z,32.1
2018-08-30T10:29:45.886Z,32.2
2018-08-30T10:30:36.668Z,32.5
2018-08-30T10:31:26.282Z,32.4
2018-08-30T10:32:16.378Z,31.9
2018-08-30T10:33:06.214Z,31.8
2018-08-30T10:33:56.240Z,32.2
2018-08-30T10:34:46.271Z,32.6
2018-08-30T10:35:36.651Z,32.6
2018-08-30T10:36:26.705Z,32.9
2018-08-30T10:37:16.473Z,32.6
2018-08-30T10:38:07.075Z,32.7
2018-08-30T10:38:57.114Z,32.9
2018-08-30T10:39:46.936Z,33.2
2018-08-30T10:40:36.723Z,33
2018-08-30T10:41:27.080Z,33.6
2018-08-30T10:42:17.187Z,33.6
2018-08-30T10:43:07.751Z,33.8
2018-08-30T10:43:56.476Z,33.7
2018-08-30T10:44:47.345Z,33.9
2018-08-30T10:45:36.575Z,34
2018-08-30T10:46:27.190Z,33.7
2018-08-30T10:47:17.272Z,33.7
2018-08-30T10:48:07.908Z,33.5
2018-08-30T10:48:57.398Z,33.4
2018-08-30T10:49:47.467Z,33.1
2018-08-30T10:50:37.792Z,33.3
2018-08-30T10:51:27.595Z,33.5
2018-08-30T10:52:17.930Z,33.9
2018-08-30T10:53:07.947Z,33.9
2018-08-30T10:53:58.049Z,33
2018-08-30T10:54:48.120Z,32.5
2018-08-30T10:55:37.632Z,32.4
2018-08-30T10:56:29.073Z,32.9
2018-08-30T10:57:18.542Z,33.3
2018-08-30T10:58:09.453Z,33.4
2018-08-30T10:58:58.861Z,33.4
2018-08-30T10:59:48.436Z,33.4
2018-08-30T11:00:39.196Z,33.7
2018-08-30T11:01:28.864Z,33.3
2018-08-30T11:02:18.441Z,32.1
2018-08-30T11:03:09.234Z,32
2018-08-30T11:03:59.078Z,31.6
2018-08-30T11:04:50.744Z,31
2018-08-30T11:05:38.697Z,31.1
2018-08-30T11:06:33.001Z,30.9
2018-08-30T11:07:20.239Z,30.8
2018-08-30T11:08:09.972Z,31.5
2018-08-30T11:08:58.948Z,32.4
2018-08-30T11:09:50.634Z,32.9
2018-08-30T11:10:40.233Z,33.5
2018-08-30T11:11:29.816Z,33.6
2018-08-30T11:12:19.389Z,33.3
2018-08-30T11:13:11.305Z,33.1
2018-08-30T11:13:59.764Z,33
2018-08-30T11:14:50.285Z,33.2
2018-08-30T11:15:39.478Z,33
2018-08-30T11:16:30.530Z,33.3
2018-08-30T11:17:20.246Z,33.2
2018-08-30T11:18:10.353Z,32.4
2018-08-30T11:18:59.956Z,32.6
2018-08-30T11:19:49.806Z,32.8
2018-08-30T11:20:40.154Z,32.6
2018-08-30T11:21:30.728Z,32.1
2018-08-30T11:22:20.273Z,32
2018-08-30T11:23:10.558Z,32.1
2018-08-30T11:24:01.944Z,32.6
2018-08-30T11:24:51.432Z,32.8
2018-08-30T11:25:41.004Z,33.2
2018-08-30T11:26:30.943Z,33
2018-08-30T11:27:20.130Z,33.6
2018-08-30T11:28:10.458Z,33.4
2018-08-30T11:29:01.157Z,33.4
2018-08-30T11:29:50.334Z,32.8
2018-08-30T11:30:40.356Z,32.4
2018-08-30T11:31:30.465Z,32.1
2018-08-30T11:32:21.053Z,32.5
2018-08-30T11:33:11.040Z,33.1
2018-08-30T11:34:01.214Z,33.2
2018-08-30T11:34:51.287Z,33.5
2018-08-30T11:35:41.342Z,33.8
2018-08-30T11:36:31.104Z,33.8
2018-08-30T11:37:21.451Z,34.3
2018-08-30T11:38:11.012Z,34.3
2018-08-30T11:39:00.457Z,34.8
2018-08-30T11:39:51.634Z,35
2018-08-30T11:40:41.469Z,33.8
2018-08-30T11:41:33.020Z,33.1
2018-08-30T11:42:21.898Z,32.9
2018-08-30T11:43:11.609Z,32.8
2018-08-30T11:44:02.267Z,33.4
2018-08-30T11:44:52.052Z,33.2
2018-08-30T11:45:42.521Z,32.9
2018-08-30T11:46:32.299Z,33.3
2018-08-30T11:47:21.949Z,33.7
2018-08-30T11:48:11.746Z,33.8
2018-08-30T11:49:01.816Z,33.9
2018-08-30T11:49:52.131Z,34.3
2018-08-30T11:50:41.930Z,34.2
2018-08-30T11:51:32.299Z,33.7
2018-08-30T11:52:22.490Z,33.9
2018-08-30T11:53:12.459Z,33.8
2018-08-30T11:54:02.483Z,34
2018-08-30T11:54:52.815Z,34.4
2018-08-30T11:55:42.873Z,34.8
2018-08-30T11:56:33.011Z,35.3
2018-08-30T11:57:22.736Z,35.3
2018-08-30T11:58:12.781Z,35.6
2018-08-30T11:59:03.136Z,35.4
2018-08-30T11:59:53.216Z,34.7
2018-08-30T12:00:43.549Z,35
2018-08-30T12:01:33.068Z,34.8
2018-08-30T12:02:23.637Z,35.5
2018-08-30T12:03:13.261Z,35.9
2018-08-30T12:04:03.255Z,36.2
2018-08-30T12:04:53.925Z,36.1
2018-08-30T12:05:43.090Z,35.9
2018-08-30T12:06:33.458Z,35.9
2018-08-30T12:07:23.826Z,36
2018-08-30T12:08:13.807Z,35.5
2018-08-30T12:09:03.362Z,35.4
2018-08-30T12:10:08.970Z,35.5
2018-08-30T12:10:44.350Z,35.2
2018-08-30T12:11:34.249Z,35.3
2018-08-30T12:12:24.201Z,34.8
2018-08-30T12:13:13.970Z,34.6
2018-08-30T12:14:03.755Z,34.5
2018-08-30T12:14:54.104Z,34.7
2018-08-30T12:15:44.145Z,34.6
2018-08-30T12:16:34.550Z,34.9
2018-08-30T12:17:24.604Z,34.6
2018-08-30T12:18:15.069Z,33.8
2018-08-30T12:19:03.865Z,34
2018-08-30T12:19:54.786Z,34.5
2018-08-30T12:20:45.364Z,34.9
2018-08-30T12:21:49.809Z,34.9
2018-08-30T12:22:24.952Z,35.3
2018-08-30T12:23:14.754Z,35.2
2018-08-30T12:24:05.089Z,35.2
2018-08-30T12:24:54.894Z,34.8
2018-08-30T12:25:45.209Z,34.6
2018-08-30T12:26:35.306Z,34.9
2018-08-30T12:27:25.173Z,35.1
2018-08-30T12:28:15.031Z,34.8
2018-08-30T12:29:05.840Z,34.2
2018-08-30T12:29:55.482Z,34.8
2018-08-30T12:30:45.539Z,34.6
2018-08-30T12:31:36.411Z,34.3
2018-08-30T12:32:26.012Z,33.9
2018-08-30T12:33:16.093Z,34.4
2018-08-30T12:34:06.218Z,34.6
2018-08-30T12:34:56.155Z,34.1
2018-08-30T12:35:46.754Z,34.3
2018-08-30T12:36:36.013Z,34.3
2018-08-30T12:37:26.689Z,34.4
2018-08-30T12:38:16.560Z,34.9
2018-08-30T12:39:06.150Z,34.9
2018-08-30T12:39:57.179Z,35.3
2018-08-30T12:40:46.046Z,34.6
2018-08-30T12:41:36.443Z,34
2018-08-30T12:42:26.360Z,33.8
2018-08-30T12:43:16.711Z,34.5
2018-08-30T12:44:06.947Z,34.7
2018-08-30T12:44:56.641Z,34.3
2018-08-30T12:45:46.453Z,34.3
2018-08-30T12:46:36.871Z,33.5
2018-08-30T12:47:26.474Z,32.9
2018-08-30T12:48:17.133Z,33.4
2018-08-30T12:49:07.188Z,33.4
2018-08-30T12:49:57.288Z,33.8
2018-08-30T12:50:48.857Z,33.9
2018-08-30T12:51:40.085Z,34.1
2018-08-30T12:52:27.988Z,34.6
2018-08-30T12:53:18.200Z,34.7
2018-08-30T12:54:09.442Z,34.8
2018-08-30T12:54:58.236Z,35.3
2018-08-30T12:55:48.516Z,35.5
2018-08-30T12:56:38.593Z,35.8
2018-08-30T12:57:28.445Z,35.9
2018-08-30T12:58:20.249Z,36.2
2018-08-30T12:59:08.610Z,36.1
2018-08-30T12:59:59.665Z,35.9
2018-08-30T13:00:48.456Z,35.8
2018-08-30T13:01:38.784Z,35.9
2018-08-30T13:02:29.086Z,36.1
2018-08-30T13:03:20.399Z,36.1
2018-08-30T13:04:08.984Z,35.9
2018-08-30T13:05:00.679Z,35.8
2018-08-30T13:05:51.890Z,35.6
2018-08-30T13:06:39.272Z,35.8
2018-08-30T13:07:30.119Z,35.7
2018-08-30T13:08:21.219Z,35.8
2018-08-30T13:09:12.291Z,35.9
2018-08-30T13:10:01.084Z,35.5
2018-08-30T13:10:51.478Z,34.7
2018-08-30T13:11:40.637Z,34.5
2018-08-30T13:12:32.363Z,33.8
2018-08-30T13:13:20.679Z,34.2
2018-08-30T13:14:11.944Z,34
2018-08-30T13:15:00.769Z,34.5
2018-08-30T13:15:49.490Z,34.1
2018-08-30T13:16:41.216Z,34.1
2018-08-30T13:17:31.118Z,34.1
2018-08-30T13:18:21.797Z,34.1
2018-08-30T13:19:13.336Z,34.1
2018-08-30T13:20:01.831Z,33.9
2018-08-30T13:20:52.293Z,33.7
2018-08-30T13:21:41.862Z,34.1
2018-08-30T13:22:33.805Z,34.6
2018-08-30T13:23:22.674Z,34.9
2018-08-30T13:24:11.507Z,35.1
2018-08-30T13:25:04.178Z,34.9
2018-08-30T13:25:53.287Z,35.2
2018-08-30T13:26:40.481Z,34.9
2018-08-30T13:27:33.520Z,34.9
2018-08-30T13:28:22.349Z,35
2018-08-30T13:29:12.397Z,35.2
2018-08-30T13:30:02.631Z,35.2
2018-08-30T13:30:54.224Z,35.2
2018-08-30T13:31:44.820Z,35.3
2018-08-30T13:32:34.313Z,35.2
2018-08-30T13:33:26.215Z,35.1
2018-08-30T13:34:15.175Z,35.3
2018-08-30T13:35:06.543Z,35.3
2018-08-30T13:35:53.774Z,35.2
2018-08-30T13:36:45.034Z,34.9
2018-08-30T13:37:32.403Z,34.6
2018-08-30T13:38:23.773Z,33.5
2018-08-30T13:39:14.707Z,33.4
2018-08-30T13:40:05.989Z,33.4
2018-08-30T13:40:54.263Z,33.9
2018-08-30T13:41:44.117Z,33.8
2018-08-30T13:42:35.216Z,34.1
2018-08-30T13:43:24.600Z,34.3
2018-08-30T13:44:15.774Z,34.4
2018-08-30T13:45:05.114Z,34.9
2018-08-30T13:45:56.095Z,35.3
2018-08-30T13:46:43.715Z,35.3
2018-08-30T13:47:35.629Z,35.3
2018-08-30T13:48:24.411Z,35.3
2018-08-30T13:49:14.717Z,34.8
2018-08-30T13:50:04.949Z,34.3
2018-08-30T13:50:55.753Z,34.5
2018-08-30T13:51:45.903Z,33.7
2018-08-30T13:52:32.357Z,33.8
2018-08-30T13:53:26.995Z,34.2
2018-08-30T13:54:16.100Z,34.4
2018-08-30T13:55:05.115Z,34.8
2018-08-30T13:55:55.213Z,35
2018-08-30T13:56:45.681Z,34.9
2018-08-30T13:57:39.459Z,34.7
2018-08-30T13:58:27.054Z,35
2018-08-30T13:59:17.662Z,34.8
2018-08-30T14:00:08.487Z,34.8
2018-08-30T14:00:58.738Z,34.9
2018-08-30T14:01:46.030Z,35.2
2018-08-30T14:02:35.108Z,35.2
2018-08-30T14:03:25.411Z,35.1
2018-08-30T14:04:16.503Z,35.4
2018-08-30T14:05:05.333Z,35.4
2018-08-30T14:05:55.893Z,35.4
2018-08-30T14:06:46.387Z,35.4
2018-08-30T14:07:35.075Z,35.6
2018-08-30T14:08:25.606Z,35.3
2018-08-30T14:09:15.956Z,35.6
2018-08-30T14:10:09.272Z,35.3
2018-08-30T14:10:55.883Z,35.1
2018-08-30T14:11:47.893Z,35.2
2018-08-30T14:12:35.825Z,35.1
2018-08-30T14:13:26.248Z,35.3
2018-08-30T14:14:15.524Z,35.3
2018-08-30T14:15:06.948Z,34.8
2018-08-30T14:15:53.914Z,34.1
2018-08-30T14:16:44.546Z,34.1
2018-08-30T14:17:33.796Z,34
2018-08-30T14:18:24.358Z,34.4
2018-08-30T14:19:14.735Z,34.6
2018-08-30T14:20:04.424Z,34.9
2018-08-30T14:20:54.294Z,35.1
2018-08-30T14:21:44.484Z,35.4
2018-08-30T14:22:34.466Z,35.4
2018-08-30T14:23:24.640Z,35.3
2018-08-30T14:24:14.390Z,35.1
2018-08-30T14:25:05.164Z,35.4
2018-08-30T14:25:54.399Z,35.3
2018-08-30T14:26:45.255Z,34.9
2018-08-30T14:27:34.516Z,34.9
2018-08-30T14:28:24.051Z,34.8
2018-08-30T14:29:14.704Z,34.9
2018-08-30T14:30:04.659Z,34.8
2018-08-30T14:30:55.098Z,34.8
2018-08-30T14:31:45.200Z,34.9
2018-08-30T14:32:35.192Z,34.7
2018-08-30T14:33:24.971Z,34.8
2018-08-30T14:34:15.301Z,35
2018-08-30T14:35:05.524Z,34.9
2018-08-30T14:35:55.286Z,34.9
2018-08-30T14:36:45.535Z,34.9
2018-08-30T14:37:35.797Z,34.9
2018-08-30T14:38:25.734Z,34.8
2018-08-30T14:39:16.458Z,34.8
2018-08-30T14:40:05.823Z,34.9
2018-08-30T14:41:11.135Z,34.6
2018-08-30T14:41:46.858Z,34.1
2018-08-30T14:42:35.875Z,33.8
2018-08-30T14:43:25.509Z,33.8
2018-08-30T14:44:16.123Z,33.9
2018-08-30T14:45:06.253Z,34.1
2018-08-30T14:45:56.408Z,34.3
2018-08-30T14:46:46.283Z,34.4
2018-08-30T14:47:38.104Z,34.6
2018-08-30T14:48:26.498Z,34.7
2018-08-30T14:49:16.018Z,34.4
2018-08-30T14:50:06.375Z,34.2
2018-08-30T14:50:56.675Z,34.1
2018-08-30T14:51:46.851Z,34
2018-08-30T14:52:36.291Z,34.1
2018-08-30T14:53:28.232Z,34.2
2018-08-30T14:54:17.292Z,34.4
2018-08-30T14:55:06.714Z,34.5
2018-08-30T14:55:57.298Z,34.6
2018-08-30T14:56:47.124Z,34.6
2018-08-30T14:57:36.617Z,34.4
2018-08-30T14:58:27.166Z,34.3
2018-08-30T14:59:17.188Z,34.2
2018-08-30T15:00:07.812Z,34.3
2018-08-30T15:00:56.277Z,34.1
2018-08-30T15:01:47.173Z,34
2018-08-30T15:02:37.288Z,33.9
2018-08-30T15:03:27.366Z,33.8
2018-08-30T15:04:17.656Z,33.9
2018-08-30T15:05:07.742Z,33.8
2018-08-30T15:05:58.708Z,33.8
2018-08-30T15:06:47.844Z,33.2
2018-08-30T15:07:37.620Z,33.2
2018-08-30T15:08:27.900Z,33.4
2018-08-30T15:09:18.022Z,33.6
2018-08-30T15:10:07.538Z,33.7
2018-08-30T15:10:57.654Z,33.8
2018-08-30T15:11:48.373Z,33.8
2018-08-30T15:12:38.908Z,33.4
2018-08-30T15:13:28.543Z,33.6
2018-08-30T15:14:18.663Z,33.6
2018-08-30T15:15:08.594Z,33.6
2018-08-30T15:15:58.588Z,33.5
2018-08-30T15:16:48.668Z,33.6
2018-08-30T15:17:38.425Z,33.7
2018-08-30T15:18:28.884Z,33.6
2018-08-30T15:19:18.857Z,33.7
2018-08-30T15:20:09.904Z,33.6
2018-08-30T15:20:58.258Z,33.7
2018-08-30T15:21:49.090Z,33.6
2018-08-30T15:22:39.196Z,33.4
2018-08-30T15:23:29.338Z,33.3
2018-08-30T15:24:18.977Z,33.3
2018-08-30T15:25:08.998Z,33.6
2018-08-30T15:25:58.232Z,33.7
2018-08-30T15:26:50.243Z,33.8
2018-08-30T15:27:39.008Z,34
2018-08-30T15:28:29.518Z,34
2018-08-30T15:29:20.227Z,34.2
2018-08-30T15:30:09.397Z,34.1
2018-08-30T15:30:59.733Z,34.3
2018-08-30T15:31:49.590Z,34.4
2018-08-30T15:32:39.753Z,34.4
2018-08-30T15:33:29.977Z,34.4
2018-08-30T15:34:19.745Z,34.3
2018-08-30T15:35:11.892Z,33.6
2018-08-30T15:35:59.865Z,33.4
2018-08-30T15:36:50.377Z,33.4
2018-08-30T15:37:39.762Z,33
2018-08-30T15:38:31.218Z,32.8
2018-08-30T15:39:20.414Z,33.1
2018-08-30T15:40:25.222Z,33.3
2018-08-30T15:41:00.352Z,33.3
2018-08-30T15:41:50.347Z,33.4
2018-08-30T15:42:40.768Z,32.7
2018-08-30T15:43:30.855Z,32.3
2018-08-30T15:44:20.627Z,32
2018-08-30T15:45:10.481Z,32
2018-08-30T15:46:01.016Z,32.2
2018-08-30T15:46:50.978Z,32.1
2018-08-30T15:47:40.816Z,31.8
2018-08-30T15:48:31.073Z,31.2
2018-08-30T15:49:21.331Z,30.7
2018-08-30T15:50:11.506Z,30.3
2018-08-30T15:51:01.412Z,30.1
2018-08-30T15:51:51.401Z,29.9
2018-08-30T15:52:41.476Z,29.8
2018-08-30T15:53:31.674Z,29.8
2018-08-30T15:54:21.908Z,30.1
2018-08-30T15:55:11.720Z,30.4
2018-08-30T15:56:02.125Z,30.5
2018-08-30T15:56:51.778Z,30.6
2018-08-30T16:15:36.412Z,28.4
2018-08-30T16:16:27.008Z,28.4
2018-08-30T16:17:18.424Z,28.3
2018-08-30T16:18:06.251Z,28.1
2018-08-30T16:18:56.859Z,28.1
2018-08-30T16:19:47.036Z,28.3
2018-08-30T16:20:37.486Z,28.5
2018-08-30T16:21:27.383Z,28.4
2018-08-30T16:22:17.191Z,28.4
2018-08-30T16:23:07.809Z,28.4
2018-08-30T16:23:57.553Z,28.4
2018-08-30T16:24:47.791Z,28.3
2018-08-30T16:25:37.506Z,28.3
2018-08-30T16:26:28.094Z,28.3
2018-08-30T16:27:17.251Z,28.2
2018-08-30T16:28:08.005Z,28.2
2018-08-30T16:28:58.478Z,28.1
2018-08-30T16:29:47.148Z,28.1
2018-08-30T16:30:38.506Z,28.1
2018-08-30T16:31:28.929Z,28.1
2018-08-30T16:32:17.786Z,27.9
2018-08-30T16:33:07.722Z,27.8
2018-08-30T16:33:58.343Z,27.6
2018-08-30T16:34:48.648Z,27.4
2018-08-30T16:35:38.479Z,27.4
2018-08-30T16:36:28.630Z,27.3
2018-08-30T16:37:18.380Z,27.3
2018-08-30T16:38:08.193Z,27.2
2018-08-30T16:38:58.163Z,27.2
2018-08-30T16:39:49.332Z,27.1
2018-08-30T16:40:38.851Z,27.1
2018-08-30T16:41:29.722Z,27.1
2018-08-30T16:42:18.755Z,27.1
2018-08-30T16:43:09.573Z,27
2018-08-30T16:43:59.161Z,26.9
2018-08-30T16:44:49.267Z,26.8
2018-08-30T16:45:38.694Z,26.8
2018-08-30T16:46:29.469Z,26.8
2018-08-30T16:47:20.172Z,26.8
2018-08-30T16:48:09.177Z,26.7
2018-08-30T16:49:00.160Z,26.7
2018-08-30T16:49:49.396Z,26.6
2018-08-30T16:50:39.470Z,26.6
2018-08-30T16:51:29.728Z,26.5
2018-08-30T16:52:19.174Z,26.5
2018-08-30T16:53:10.664Z,26.4
2018-08-30T16:54:00.232Z,26.4
2018-08-30T16:54:49.114Z,26.4
2018-08-30T16:55:41.082Z,26.3
2018-08-30T16:56:30.206Z,26.3
2018-08-30T16:57:20.160Z,26.3
2018-08-30T16:58:09.669Z,26.1
2018-08-30T16:59:00.607Z,26.1
2018-08-30T16:59:50.358Z,26.1
2018-08-30T17:00:40.424Z,26.1
2018-08-30T17:01:30.111Z,26.1
2018-08-30T17:02:21.759Z,26
2018-08-30T17:03:10.051Z,25.9
2018-08-30T17:04:01.044Z,25.9
2018-08-30T17:04:50.746Z,25.8
2018-08-30T17:05:40.302Z,25.8
2018-08-30T17:06:30.879Z,25.8
2018-08-30T17:07:20.758Z,25.8
2018-08-30T17:08:10.601Z,25.7
2018-08-30T17:09:00.616Z,25.7
2018-08-30T17:09:50.886Z,25.7
2018-08-30T17:10:40.485Z,25.6
2018-08-30T17:11:30.475Z,25.6
2018-08-30T17:12:20.783Z,25.6
2018-08-30T17:13:11.396Z,25.6
2018-08-30T17:14:01.355Z,25.6
2018-08-30T17:14:51.474Z,25.6
2018-08-30T17:15:41.780Z,25.5
2018-08-30T17:16:31.757Z,25.6
2018-08-30T17:17:21.887Z,25.6
2018-08-30T17:18:12.698Z,25.5
2018-08-30T17:19:01.341Z,25.4
2018-08-30T17:19:51.640Z,25.4
2018-08-30T17:20:42.175Z,25.4
2018-08-30T17:21:33.150Z,25.4
2018-08-30T17:22:22.115Z,25.4
2018-08-30T17:23:11.925Z,25.4
2018-08-30T17:24:02.275Z,25.4
2018-08-30T17:24:52.620Z,25.3
2018-08-30T17:25:42.390Z,25.3
2018-08-30T17:26:32.170Z,25.3
2018-08-30T17:27:22.013Z,25.3
2018-08-30T17:28:12.596Z,25.3
2018-08-30T17:29:02.672Z,25.3
2018-08-30T17:29:52.142Z,25.3
2018-08-30T17:30:42.777Z,25.2
2018-08-30T17:31:32.612Z,25.1
2018-08-30T17:32:22.303Z,25.1
2018-08-30T17:33:13.088Z,25
2018-08-30T17:34:03.071Z,25
2018-08-30T17:34:52.834Z,24.9
2018-08-30T17:35:43.175Z,24.9
2018-08-30T17:36:33.231Z,24.9
2018-08-30T17:37:23.015Z,24.9
2018-08-30T17:38:13.353Z,24.8
2018-08-30T17:39:03.447Z,24.7
2018-08-30T17:39:53.237Z,24.7
2018-08-30T17:40:43.654Z,24.7
2018-08-30T17:41:33.655Z,24.6
2018-08-30T17:42:25.092Z,24.6
2018-08-30T17:43:13.787Z,24.6
2018-08-30T17:44:03.918Z,24.4
2018-08-30T17:44:53.593Z,24.6
2018-08-30T17:45:44.387Z,24.5
2018-08-30T17:46:33.783Z,24.5
2018-08-30T17:47:24.138Z,24.5
2018-08-30T17:48:14.247Z,24.4
2018-08-30T17:49:03.956Z,24.4
2018-08-30T17:49:54.370Z,24.5
2018-08-30T17:50:44.368Z,24.5
2018-08-30T17:51:33.956Z,24.6
2018-08-30T17:52:24.206Z,24.6
2018-08-30T17:53:14.216Z,24.6
2018-08-30T17:54:04.322Z,24.7
2018-08-30T17:54:54.662Z,24.8
2018-08-30T17:55:44.772Z,24.9
2018-08-30T17:56:34.831Z,24.9
2018-08-30T17:57:24.618Z,24.9
2018-08-30T17:58:14.721Z,24.9
2018-08-30T17:59:05.003Z,24.9
2018-08-30T17:59:55.960Z,24.8
2018-08-30T18:00:44.894Z,24.7
2018-08-30T18:01:35.785Z,24.7
2018-08-30T18:02:25.057Z,24.6
2018-08-30T18:03:16.180Z,24.6
2018-08-30T18:04:05.235Z,24.7
2018-08-30T18:04:55.193Z,24.7
2018-08-30T18:05:45.578Z,24.6
2018-08-30T18:06:35.836Z,24.6
2018-08-30T18:07:25.383Z,24.5
2018-08-30T18:08:15.719Z,24.5
2018-08-30T18:09:05.943Z,24.5
2018-08-30T18:09:56.120Z,24.6
2018-08-30T18:10:45.625Z,24.6
2018-08-30T18:11:35.443Z,24.6
2018-08-30T18:12:26.320Z,24.5
2018-08-30T18:13:15.535Z,24.6